E.B. Pemigewasset River @ Lincoln, Nh

East Branch Pemigewasset River at Lincoln
 Total Drainage Area: 115 sq. miles 
 Drainage Area Controlled by Corps Dams: 0 sq. miles (0%) 
 Warning Flow/Stage: ?? cfs / ?? feet 
 Flood Flow/Stage: ?? cfs / ?? feet 
Date Time
(Eastern)
Stage
(ft)
Flow
(cfs)
CSM
(cfs / sq. mi.)
Jun-25 12:15 am 4.31 227 2.0
Jun-24 11:15 pm 4.32 230 2.0
Jun-24 10:15 pm 4.33 234 2.0
Jun-24 09:15 pm 4.35 241 2.1
Jun-24 08:15 pm 4.37 248 2.2
Jun-24 07:15 pm 4.40 259 2.3
Jun-24 06:15 pm 4.41 262 2.3
Jun-24 05:15 pm 4.42 265 2.3
Jun-24 04:15 pm 4.44 270 2.4
Jun-24 03:15 pm 4.46 276 2.4
Jun-24 02:15 pm 4.48 282 2.5
Jun-24 01:15 pm 4.50 288 2.5
Jun-24 12:15 pm 4.54 300 2.6
Jun-24 11:15 am 4.57 310 2.7
Jun-24 10:15 am 4.60 319 2.8
Jun-24 09:15 am 4.62 326 2.8
Jun-24 08:15 am 4.66 339 3.0
Jun-24 07:15 am 4.70 352 3.1
Jun-24 06:15 am 4.73 363 3.2
Jun-24 05:15 am 4.78 380 3.3
Jun-24 04:15 am 4.80 388 3.4
Jun-24 03:15 am 4.83 399 3.5
Jun-24 02:15 am 4.84 402 3.5
Jun-24 01:15 am 4.85 406 3.5
Jun-24 12:15 am 4.87 414 3.6
Report Generated June 25, 2024 01:09 am